Terminal Aerodrome Forecast
Issued by NWS

Home | Current Version | Previous Version | Graphics & Text | Print | Product List | Glossary On
Versions: 1 2 3 4 5 6 7 8 9 10 11 12 13 14 15 16 17 18 19 20 21
887
FTUS43 KTOP 231144
TAFFOE
TAF
KFOE 231144Z 2312/2412 05009KT P6SM SCT100
     FM231400 06012G21KT P6SM VCSH OVC070
     FM231800 10013G21KT P6SM BKN060
     FM232200 08010KT P6SM SCT100
     FM240500 28011KT P6SM SCT020
     FM241000 29015G24KT P6SM BKN015=

USA.gov is the U.S. government's official web portal to all federal, state and local government web resources and services.